Time;durP1;ratioP1;P1;durP2;ratioP2;P2;SDS_P1;SDS_P2;PMS_P1;PMS_P2;Temp;Humidity;BMP_temperature;BMP_pressure;BME280_temperature;BME280_humidity;BME280_pressure;Samples;Min_cycle;Max_cycle;Signal;HPM_P1;HPM_P2
2024/01/02 00:02:27;;;;;;;5.17;2.03;;;;;;;5.78;100.00;95254.63;7395653;19;20408;-88
2024/01/02 00:05:08;;;;;;;5.30;1.53;;;;;;;5.43;100.00;95201.47;7400759;19;20385;-88
2024/01/02 00:07:49;;;;;;;8.10;2.00;;;;;;;5.38;100.00;95173.75;7403448;19;20413;-88
2024/01/02 00:10:31;;;;;;;6.10;2.27;;;;;;;5.71;100.00;95223.03;7402259;19;20396;-88
2024/01/02 00:13:12;;;;;;;9.70;1.70;;;;;;;5.71;100.00;95231.59;7401249;19;20412;-88
2024/01/02 00:15:53;;;;;;;3.93;2.60;;;;;;;6.07;100.00;95270.63;7403566;19;20404;-88
2024/01/02 00:18:34;;;;;;;6.80;2.80;;;;;;;5.69;100.00;95205.06;7403633;19;20410;-88
2024/01/02 00:21:15;;;;;;;4.73;2.17;;;;;;;5.21;100.00;95135.34;7403283;19;20380;-87
2024/01/02 00:24:01;;;;;;;3.10;1.87;;;;;;;5.70;100.00;95204.00;7401919;19;20400;-89
2024/01/02 00:26:43;;;;;;;1.77;1.50;;;;;;;5.69;100.00;95199.88;7402767;19;20375;-88
2024/01/02 00:29:24;;;;;;;6.57;2.07;;;;;;;5.52;100.00;95190.09;7402864;19;20372;-88
2024/01/02 00:32:05;;;;;;;3.10;1.83;;;;;;;4.69;100.00;95062.06;7401949;19;20404;-88
2024/01/02 00:34:46;;;;;;;3.80;1.30;;;;;;;5.72;100.00;95220.13;7402621;19;20381;-88
2024/01/02 00:37:27;;;;;;;5.80;2.00;;;;;;;5.05;100.00;95131.53;7403489;19;20384;-88
2024/01/02 00:40:09;;;;;;;6.30;1.83;;;;;;;4.96;100.00;95130.69;7403759;19;20372;-88
2024/01/02 00:42:51;;;;;;;4.57;1.63;;;;;;;4.90;100.00;95140.41;7401268;19;20486;-88
2024/01/02 00:45:32;;;;;;;3.40;1.80;;;;;;;5.76;100.00;95264.56;7402710;19;20869;-88
2024/01/02 00:48:13;;;;;;;3.73;1.70;;;;;;;4.71;100.00;95098.16;7402986;19;20389;-88
2024/01/02 00:50:54;;;;;;;4.33;2.10;;;;;;;5.00;100.00;95144.63;7400928;19;20377;-88
2024/01/02 00:53:36;;;;;;;2.40;1.77;;;;;;;5.20;100.00;95157.22;7400407;19;20766;-88
2024/01/02 00:56:17;;;;;;;9.00;2.50;;;;;;;4.79;100.00;95119.03;7402088;19;20384;-88
2024/01/02 00:58:58;;;;;;;7.60;2.00;;;;;;;4.87;100.00;95122.00;7402515;19;20686;-88
2024/01/02 01:01:39;;;;;;;3.10;1.63;;;;;;;4.59;100.00;95082.28;7402711;19;20393;-88
2024/01/02 01:04:20;;;;;;;9.27;2.70;;;;;;;4.81;100.00;95121.34;7402709;19;20408;-88
2024/01/02 01:07:01;;;;;;;4.43;2.53;;;;;;;4.95;100.00;95140.31;7402245;19;20842;-88
2024/01/02 01:09:43;;;;;;;5.40;2.07;;;;;;;5.01;100.00;95149.53;7401937;19;20392;-88
2024/01/02 01:12:24;;;;;;;4.10;1.67;;;;;;;4.72;100.00;95108.25;7400461;19;20933;-88
2024/01/02 01:15:05;;;;;;;5.87;2.13;;;;;;;4.93;100.00;95142.44;7401740;19;20396;-88
2024/01/02 01:17:46;;;;;;;6.67;2.20;;;;;;;5.25;100.00;95192.75;7400960;19;20389;-88
2024/01/02 01:20:27;;;;;;;3.73;2.27;;;;;;;4.86;100.00;95143.88;7402725;19;20368;-89
2024/01/02 01:23:08;;;;;;;12.63;2.80;;;;;;;4.27;100.00;95057.97;7401691;19;20401;-89
2024/01/02 01:25:49;;;;;;;3.80;1.50;;;;;;;5.30;100.00;95200.44;7401439;19;20389;-88
2024/01/02 01:28:30;;;;;;;6.73;2.10;;;;;;;5.72;100.00;95240.19;7401972;19;20389;-89
2024/01/02 01:31:12;;;;;;;6.00;2.13;;;;;;;5.19;100.00;95140.09;7399937;19;20389;-88
2024/01/02 01:33:53;;;;;;;3.70;2.10;;;;;;;5.19;100.00;95119.28;7400990;19;20383;-87
2024/01/02 01:36:34;;;;;;;4.77;1.87;;;;;;;4.97;100.00;95093.22;7401982;19;20357;-88
2024/01/02 01:39:18;;;;;;;10.80;2.63;;;;;;;5.11;100.00;95129.59;7400949;19;20691;-88
2024/01/02 01:42:00;;;;;;;3.40;1.67;;;;;;;4.99;100.00;95101.50;7400255;19;20441;-88
2024/01/02 01:44:41;;;;;;;9.03;2.10;;;;;;;5.32;100.00;95154.13;7401249;19;20392;-89
2024/01/02 01:47:23;;;;;;;10.27;3.07;;;;;;;5.66;100.00;95185.63;7401372;19;20379;-88
2024/01/02 01:50:05;;;;;;;4.60;2.00;;;;;;;5.25;100.00;95122.53;7400688;19;20388;-88
2024/01/02 01:52:46;;;;;;;4.20;1.83;;;;;;;5.39;100.00;95150.03;7399818;19;20416;-88
2024/01/02 01:55:28;;;;;;;4.80;1.97;;;;;;;5.35;100.00;95149.09;7401639;19;20861;-88
2024/01/02 01:58:09;;;;;;;6.60;2.00;;;;;;;5.00;100.00;95084.81;7417305;19;20381;-86
2024/01/02 02:00:50;;;;;;;9.23;2.30;;;;;;;4.72;100.00;95040.69;7429247;19;20392;-86
2024/01/02 02:03:33;;;;;;;10.70;2.93;;;;;;;5.30;100.00;95146.63;7427638;19;20433;-86
2024/01/02 02:06:15;;;;;;;4.20;2.20;;;;;;;4.70;100.00;95050.63;7429956;19;20411;-85
2024/01/02 02:08:56;;;;;;;3.17;2.00;;;;;;;5.50;100.00;95158.41;7427768;19;20428;-87
2024/01/02 02:11:39;;;;;;;3.53;1.70;;;;;;;5.01;100.00;95061.13;7425229;19;20437;-86
2024/01/02 02:14:20;;;;;;;8.07;2.07;;;;;;;5.37;100.00;95131.34;7421560;19;20392;-88
2024/01/02 02:17:01;;;;;;;2.87;2.07;;;;;;;5.29;100.00;95113.06;7399687;19;20393;-88
2024/01/02 02:19:42;;;;;;;4.93;1.77;;;;;;;5.64;100.00;95166.16;7399684;19;20392;-88
2024/01/02 02:22:34;;;;;;;3.57;1.57;;;;;;;5.23;100.00;95111.66;7398955;19;20413;-88
2024/01/02 02:25:18;;;;;;;5.07;1.97;;;;;;;5.28;100.00;95114.13;7397581;19;20412;-88
2024/01/02 02:27:59;;;;;;;3.93;2.07;;;;;;;5.63;100.00;95154.22;7398574;19;20402;-88
2024/01/02 02:30:41;;;;;;;1.70;1.60;;;;;;;4.54;100.00;95026.00;7397465;19;20377;-88
2024/01/02 02:33:22;;;;;;;4.80;1.60;;;;;;;4.67;100.00;95035.63;7396975;19;20412;-88
2024/01/02 02:36:03;;;;;;;4.03;2.30;;;;;;;4.86;100.00;95043.25;7398816;19;20385;-89
2024/01/02 02:38:47;;;;;;;7.10;1.60;;;;;;;4.61;100.00;95007.41;7398412;19;20389;-87
2024/01/02 02:41:28;;;;;;;3.30;2.27;;;;;;;4.17;100.00;94933.53;7398768;19;20663;-88
2024/01/02 02:44:10;;;;;;;7.40;2.70;;;;;;;4.68;100.00;95005.19;7398990;19;20373;-88
2024/01/02 02:46:51;;;;;;;3.07;1.57;;;;;;;4.83;100.00;95045.69;7428841;19;20400;-87
2024/01/02 02:49:32;;;;;;;2.80;1.93;;;;;;;5.42;100.00;95119.28;7428847;19;20377;-84
2024/01/02 02:52:14;;;;;;;1.73;1.40;;;;;;;4.81;100.00;95012.19;7428628;19;20412;-86
2024/01/02 02:54:55;;;;;;;5.47;2.23;;;;;;;5.03;100.00;95046.00;7429243;19;20385;-87
2024/01/02 02:57:36;;;;;;;4.30;1.57;;;;;;;4.89;100.00;95032.28;7429293;19;20384;-85
2024/01/02 03:00:17;;;;;;;3.97;1.87;;;;;;;4.63;100.00;94994.91;7409406;19;20428;-88
2024/01/02 03:02:59;;;;;;;4.73;2.13;;;;;;;5.04;100.00;95042.38;7398714;19;20412;-88
2024/01/02 03:05:40;;;;;;;2.40;1.77;;;;;;;4.28;100.00;94928.91;7400315;19;20889;-88
2024/01/02 03:08:22;;;;;;;3.33;2.00;;;;;;;5.18;100.00;95070.16;7397706;19;20388;-88
2024/01/02 03:11:03;;;;;;;7.83;1.93;;;;;;;4.55;100.00;94975.59;7396994;19;20384;-88
2024/01/02 03:13:44;;;;;;;4.73;2.03;;;;;;;4.63;100.00;94979.31;7398903;19;20373;-88
2024/01/02 03:16:25;;;;;;;5.93;2.40;;;;;;;4.31;100.00;94939.47;7397346;19;20428;-88
2024/01/02 03:19:06;;;;;;;4.03;1.70;;;;;;;5.03;100.00;95020.00;7398079;19;20401;-88
2024/01/02 03:21:47;;;;;;;5.43;1.90;;;;;;;4.84;100.00;94987.44;7396883;19;20460;-88
2024/01/02 03:24:28;;;;;;;8.47;2.23;;;;;;;5.21;100.00;95053.97;7397174;19;20399;-88
2024/01/02 03:27:09;;;;;;;4.20;1.90;;;;;;;4.63;100.00;94953.34;7397804;19;20373;-88
2024/01/02 03:29:50;;;;;;;6.60;2.40;;;;;;;4.60;100.00;94938.34;7396521;19;20408;-88
2024/01/02 03:32:31;;;;;;;5.70;1.53;;;;;;;5.52;100.00;95077.44;7395864;19;20420;-89
2024/01/02 03:35:13;;;;;;;2.17;1.60;;;;;;;4.89;100.00;94982.88;7397346;19;20373;-88
2024/01/02 03:37:54;;;;;;;5.57;1.70;;;;;;;4.87;100.00;94985.03;7397490;19;20423;-88
2024/01/02 03:40:35;;;;;;;3.23;1.53;;;;;;;5.12;100.00;95001.88;7397134;19;20685;-88
2024/01/02 03:43:16;;;;;;;3.50;1.50;;;;;;;5.19;100.00;94994.44;7395439;19;20943;-88
2024/01/02 03:45:57;;;;;;;7.07;2.23;;;;;;;4.96;100.00;94970.25;7396793;19;20372;-88
2024/01/02 03:48:39;;;;;;;3.00;1.53;;;;;;;4.65;100.00;94912.25;7396736;19;20456;-88
2024/01/02 03:51:21;;;;;;;5.23;1.80;;;;;;;5.71;100.00;95059.06;7395494;19;20383;-88
2024/01/02 03:54:02;;;;;;;4.90;2.23;;;;;;;5.05;100.00;94945.09;7396668;19;20380;-87
2024/01/02 03:56:44;;;;;;;5.17;1.50;;;;;;;5.00;100.00;94945.22;7397229;19;20373;-88
2024/01/02 03:59:26;;;;;;;3.63;1.47;;;;;;;5.27;100.00;94959.13;7396915;19;20853;-88
2024/01/02 04:02:08;;;;;;;4.00;2.00;;;;;;;4.36;100.00;94819.13;7396251;19;20388;-88
2024/01/02 04:04:49;;;;;;;2.60;1.60;;;;;;;4.30;100.00;94802.13;7396750;19;20404;-88
2024/01/02 04:07:30;;;;;;;7.37;1.73;;;;;;;4.92;100.00;94899.16;7396847;19;20373;-88
2024/01/02 04:10:11;;;;;;;3.40;1.60;;;;;;;4.61;100.00;94831.53;7395654;19;20373;-88
2024/01/02 04:12:53;;;;;;;1.90;1.70;;;;;;;4.41;100.00;94812.00;7395181;19;20397;-88
2024/01/02 04:15:34;;;;;;;2.70;1.20;;;;;;;5.16;100.00;94913.63;7395619;19;20485;-88
2024/01/02 04:18:15;;;;;;;5.53;2.00;;;;;;;4.74;100.00;94853.31;7396891;19;20721;-88
2024/01/02 04:20:56;;;;;;;2.60;1.53;;;;;;;4.74;100.00;94828.09;7397491;19;20870;-88
2024/01/02 04:23:37;;;;;;;3.67;1.70;;;;;;;4.35;100.00;94774.22;7395010;19;20408;-88
2024/01/02 04:26:18;;;;;;;1.67;1.27;;;;;;;4.30;100.00;94761.38;7396181;19;20388;-88
2024/01/02 04:28:59;;;;;;;3.67;1.53;;;;;;;4.72;100.00;94806.06;7395918;19;20397;-89
2024/01/02 04:31:40;;;;;;;3.33;1.63;;;;;;;4.93;100.00;94850.53;7393344;19;20413;-87
2024/01/02 04:34:22;;;;;;;2.17;1.80;;;;;;;4.73;100.00;94800.56;7395120;19;20364;-88
2024/01/02 04:37:03;;;;;;;1.70;1.60;;;;;;;5.11;100.00;94872.16;7395304;19;20384;-88
2024/01/02 04:39:44;;;;;;;1.60;1.47;;;;;;;4.23;100.00;94719.47;7395622;19;20424;-88
2024/01/02 04:42:25;;;;;;;4.53;1.50;;;;;;;4.81;100.00;94821.72;7394415;19;20419;-88
2024/01/02 04:45:07;;;;;;;3.47;1.77;;;;;;;4.83;100.00;94809.94;7396046;19;20383;-89
2024/01/02 04:47:48;;;;;;;4.10;1.30;;;;;;;5.15;100.00;94858.25;7397049;19;20365;-89
2024/01/02 04:50:29;;;;;;;2.90;1.70;;;;;;;4.52;100.00;94759.81;7396520;19;20412;-88
2024/01/02 04:53:10;;;;;;;2.20;1.40;;;;;;;4.96;100.00;94818.72;7399746;19;20480;-88
2024/01/02 04:55:53;;;;;;;3.43;1.80;;;;;;;4.82;100.00;94803.22;7402260;19;20384;-88
2024/01/02 04:58:34;;;;;;;4.57;2.13;;;;;;;4.98;100.00;94819.19;7402193;19;20385;-88
2024/01/02 05:01:15;;;;;;;3.70;1.70;;;;;;;4.46;100.00;94728.00;7402719;19;20384;-88
2024/01/02 05:03:56;;;;;;;3.87;2.23;;;;;;;5.03;100.00;94814.63;7402472;19;20364;-88
2024/01/02 05:06:38;;;;;;;4.77;2.40;;;;;;;4.48;100.00;94720.66;7401460;19;20456;-88
2024/01/02 05:09:19;;;;;;;2.40;1.23;;;;;;;5.00;100.00;94812.63;7401526;19;20376;-88
2024/01/02 05:12:00;;;;;;;3.30;2.00;;;;;;;4.61;100.00;94737.22;7400969;19;20897;-88
2024/01/02 05:14:41;;;;;;;3.80;2.00;;;;;;;5.45;100.00;94856.72;7401628;19;20376;-88
2024/01/02 05:17:22;;;;;;;3.97;1.60;;;;;;;4.41;100.00;94699.56;7400937;19;20381;-88
2024/01/02 05:20:04;;;;;;;6.67;1.83;;;;;;;4.64;100.00;94719.22;7401752;19;20372;-88
2024/01/02 05:22:45;;;;;;;4.83;2.77;;;;;;;4.67;100.00;94729.03;7400165;19;20423;-88
2024/01/02 05:25:26;;;;;;;3.33;1.80;;;;;;;4.27;100.00;94652.91;7398974;19;20404;-88
2024/01/02 05:28:07;;;;;;;1.73;1.43;;;;;;;4.42;100.00;94681.09;7400826;19;20400;-88
2024/01/02 05:30:48;;;;;;;2.40;1.50;;;;;;;4.24;100.00;94644.97;7400249;19;20376;-88
2024/01/02 05:33:30;;;;;;;3.40;1.93;;;;;;;4.44;100.00;94678.94;7398990;19;20692;-88
2024/01/02 05:36:11;;;;;;;5.00;2.00;;;;;;;4.29;100.00;94642.22;7401030;19;20365;-87
2024/01/02 05:38:52;;;;;;;5.03;1.50;;;;;;;4.76;100.00;94721.25;7400439;19;20385;-87
2024/01/02 05:41:33;;;;;;;3.20;2.07;;;;;;;4.33;100.00;94638.72;7401061;19;20467;-88
2024/01/02 05:44:15;;;;;;;2.97;1.77;;;;;;;4.91;100.00;94707.88;7400104;19;20385;-88
2024/01/02 05:46:56;;;;;;;1.50;1.40;;;;;;;4.88;100.00;94708.44;7400144;19;20376;-86
2024/01/02 05:49:37;;;;;;;2.30;2.10;;;;;;;4.64;100.00;94661.31;7402758;19;20676;-88
2024/01/02 05:52:18;;;;;;;2.47;1.80;;;;;;;4.89;100.00;94691.78;7400175;19;20431;-88
2024/01/02 05:54:59;;;;;;;3.50;1.90;;;;;;;5.15;100.00;94735.28;7400647;19;20680;-88
2024/01/02 05:57:40;;;;;;;4.00;2.30;;;;;;;4.14;100.00;94587.03;7401231;19;20353;-88
2024/01/02 06:00:21;;;;;;;2.73;2.10;;;;;;;4.58;100.00;94652.09;7403076;19;20381;-87
2024/01/02 06:03:03;;;;;;;3.50;1.50;;;;;;;4.79;100.00;94686.88;7397484;19;20448;-87
2024/01/02 06:05:44;;;;;;;3.23;2.00;;;;;;;5.05;100.00;94712.94;7400163;19;20373;-87
2024/01/02 06:08:25;;;;;;;2.30;1.70;;;;;;;4.63;100.00;94634.53;7399959;19;20858;-87
2024/01/02 06:11:06;;;;;;;1.93;1.60;;;;;;;4.75;100.00;94659.94;7398110;19;20377;-87
2024/01/02 06:13:47;;;;;;;3.03;2.17;;;;;;;4.14;100.00;94568.88;7400015;19;20353;-86
2024/01/02 06:16:28;;;;;;;2.30;2.10;;;;;;;5.48;100.00;94749.44;7399198;19;20884;-87
2024/01/02 06:19:11;;;;;;;4.77;1.77;;;;;;;4.65;100.00;94629.06;7399735;19;20369;-87
2024/01/02 06:21:52;;;;;;;2.90;1.70;;;;;;;4.19;100.00;94571.31;7399344;19;20464;-87
2024/01/02 06:24:33;;;;;;;6.90;2.57;;;;;;;4.58;100.00;94632.09;7398637;19;20396;-87
2024/01/02 06:27:14;;;;;;;3.33;1.80;;;;;;;4.89;100.00;94683.22;7399747;19;20435;-87
2024/01/02 06:29:55;;;;;;;6.90;2.13;;;;;;;4.30;100.00;94584.03;7398745;19;20384;-87
2024/01/02 06:32:37;;;;;;;1.83;1.73;;;;;;;4.38;100.00;94583.31;7397980;19;20412;-86
2024/01/02 06:35:18;;;;;;;2.70;1.93;;;;;;;4.72;100.00;94642.38;7399006;19;20395;-87
2024/01/02 06:37:59;;;;;;;1.20;1.00;;;;;;;4.50;100.00;94612.06;7398976;19;20384;-86
2024/01/02 06:40:40;;;;;;;2.10;1.53;;;;;;;4.51;100.00;94616.19;7398934;19;20380;-86
2024/01/02 06:43:21;;;;;;;2.33;1.37;;;;;;;3.98;100.00;94546.97;7397160;19;20424;-87
2024/01/02 06:46:03;;;;;;;8.43;2.03;;;;;;;4.52;100.00;94622.91;7399465;19;20389;-87
2024/01/02 06:48:44;;;;;;;1.80;1.47;;;;;;;4.76;100.00;94659.66;7399234;19;20384;-85
2024/01/02 06:51:28;;;;;;;3.17;1.60;;;;;;;4.52;100.00;94601.38;7397313;19;20395;-86
2024/01/02 06:54:09;;;;;;;2.10;1.33;;;;;;;4.98;100.00;94674.38;7398412;19;20468;-87
2024/01/02 06:56:50;;;;;;;5.90;1.67;;;;;;;4.42;100.00;94579.03;7401712;19;20377;-87
2024/01/02 06:59:31;;;;;;;3.63;3.30;;;;;;;4.51;100.00;94598.00;7401105;19;20357;-86
2024/01/02 07:02:13;;;;;;;3.40;2.53;;;;;;;4.61;100.00;94599.53;7398916;19;20687;-85
2024/01/02 07:04:54;;;;;;;2.40;1.97;;;;;;;5.25;100.00;94707.16;7399154;19;20384;-87
2024/01/02 07:07:35;;;;;;;3.80;1.90;;;;;;;4.05;100.00;94520.56;7398991;19;20381;-86
2024/01/02 07:10:16;;;;;;;2.30;2.10;;;;;;;4.62;100.00;94612.22;7398240;19;20391;-87
2024/01/02 07:13:00;;;;;;;1.50;1.40;;;;;;;4.26;100.00;94565.72;7396797;19;20404;-86
2024/01/02 07:15:41;;;;;;;1.63;1.53;;;;;;;3.84;100.00;94508.16;7397054;19;20409;-86
2024/01/02 07:18:23;;;;;;;1.50;1.10;;;;;;;4.25;100.00;94566.00;7398092;19;20436;-87
2024/01/02 07:21:04;;;;;;;1.90;1.53;;;;;;;4.87;100.00;94657.53;7398097;19;20418;-85
2024/01/02 07:23:45;;;;;;;2.00;1.80;;;;;;;4.29;100.00;94559.13;7397918;19;20368;-86
2024/01/02 07:26:27;;;;;;;1.67;1.50;;;;;;;4.52;100.00;94611.75;7397824;19;20411;-86
2024/01/02 07:29:08;;;;;;;1.40;1.30;;;;;;;4.13;100.00;94563.97;7397711;19;20383;-87
2024/01/02 07:31:50;;;;;;;2.40;1.60;;;;;;;4.73;100.00;94644.66;7396254;19;20419;-86
2024/01/02 07:34:31;;;;;;;2.83;2.00;;;;;;;4.16;100.00;94561.53;7398108;19;20392;-86
2024/01/02 07:37:14;;;;;;;1.30;1.20;;;;;;;4.41;100.00;94591.25;7397105;19;20893;-87
2024/01/02 07:39:55;;;;;;;6.07;3.60;;;;;;;3.65;100.00;94471.28;7396686;19;20846;-86
2024/01/02 07:42:36;;;;;;;9.57;3.87;;;;;;;4.56;100.00;94602.28;7395860;19;20900;-86
2024/01/02 07:45:17;;;;;;;3.20;1.80;;;;;;;4.40;100.00;94583.78;7397150;19;20823;-86
2024/01/02 07:47:59;;;;;;;4.70;2.63;;;;;;;4.51;100.00;94592.06;7397558;19;20860;-86
2024/01/02 07:50:40;;;;;;;3.40;1.90;;;;;;;4.14;100.00;94534.34;7396305;19;20456;-86
2024/01/02 07:53:22;;;;;;;3.50;1.90;;;;;;;4.01;100.00;94514.47;7394747;19;20408;-86
2024/01/02 07:56:04;;;;;;;3.33;1.60;;;;;;;3.97;100.00;94509.13;7396030;19;20854;-86
2024/01/02 07:58:48;;;;;;;7.20;3.40;;;;;;;5.01;100.00;94671.19;7396534;19;20380;-86
2024/01/02 08:01:29;;;;;;;8.67;4.33;;;;;;;4.66;100.00;94592.41;7411520;19;20373;-85
2024/01/02 08:04:10;;;;;;;8.70;3.50;;;;;;;4.93;100.00;94655.59;7427833;19;20392;-85
2024/01/02 08:06:51;;;;;;;3.37;2.50;;;;;;;4.12;100.00;94526.88;7427823;19;20357;-85
2024/01/02 08:09:33;;;;;;;11.13;5.90;;;;;;;4.09;100.00;94514.47;7427547;19;20380;-85
2024/01/02 08:12:14;;;;;;;8.67;3.37;;;;;;;4.48;100.00;94564.84;7426574;19;20468;-85
2024/01/02 08:14:55;;;;;;;6.30;3.30;;;;;;;3.55;100.00;94423.03;7427249;19;20408;-85
2024/01/02 08:17:36;;;;;;;4.47;3.00;;;;;;;4.27;100.00;94532.72;7404230;19;20407;-86
2024/01/02 08:20:17;;;;;;;4.47;1.80;;;;;;;4.43;100.00;94539.00;7395595;19;20432;-86
2024/01/02 08:22:58;;;;;;;2.80;1.67;;;;;;;3.47;100.00;94404.88;7394979;19;20521;-86
2024/01/02 08:25:43;;;;;;;2.87;2.07;;;;;;;4.43;100.00;94520.84;7398647;19;20388;-86
2024/01/02 08:28:24;;;;;;;3.73;2.10;;;;;;;4.57;100.00;94538.88;7403140;19;20467;-85
2024/01/02 08:31:05;;;;;;;2.33;2.13;;;;;;;4.59;100.00;94536.75;7401112;19;20401;-86
2024/01/02 08:33:46;;;;;;;1.20;1.10;;;;;;;5.18;100.00;94623.66;7403129;19;20369;-86
2024/01/02 08:36:27;;;;;;;2.13;1.40;;;;;;;4.15;100.00;94460.59;7403204;19;20399;-86
2024/01/02 08:39:09;;;;;;;1.90;1.60;;;;;;;3.89;100.00;94440.56;7402490;19;20383;-86
2024/01/02 08:41:50;;;;;;;2.33;1.70;;;;;;;4.57;100.00;94537.03;7401782;19;20419;-86
2024/01/02 08:44:33;;;;;;;2.57;2.30;;;;;;;4.74;100.00;94551.88;7402620;19;20677;-87
2024/01/02 08:47:14;;;;;;;2.60;2.20;;;;;;;4.38;100.00;94508.75;7403283;19;20373;-86
2024/01/02 08:49:55;;;;;;;2.30;1.93;;;;;;;4.41;100.00;94495.16;7402083;19;20796;-87
2024/01/02 08:52:36;;;;;;;3.33;1.40;;;;;;;4.35;100.00;94480.78;7400405;19;20404;-85
2024/01/02 08:55:17;;;;;;;1.40;1.30;;;;;;;4.51;100.00;94506.34;7402274;19;20387;-86
2024/01/02 08:57:59;;;;;;;2.13;1.50;;;;;;;4.87;100.00;94537.22;7401801;19;20888;-86
2024/01/02 09:00:40;;;;;;;1.80;1.70;;;;;;;4.80;100.00;94532.50;7402983;19;20388;-87
2024/01/02 09:03:21;;;;;;;1.40;1.30;;;;;;;4.60;100.00;94489.69;7400037;19;20404;-86
2024/01/02 09:06:03;;;;;;;2.30;1.57;;;;;;;3.98;100.00;94395.72;7402316;19;20373;-87
2024/01/02 09:08:44;;;;;;;1.83;1.73;;;;;;;4.25;100.00;94447.34;7402684;19;20388;-87
2024/01/02 09:11:25;;;;;;;4.23;1.93;;;;;;;3.94;100.00;94374.78;7399599;19;20874;-86
2024/01/02 09:14:07;;;;;;;2.93;1.80;;;;;;;4.44;100.00;94468.59;7402155;19;20356;-86
2024/01/02 09:16:49;;;;;;;3.17;2.73;;;;;;;4.86;100.00;94528.66;7402887;19;20352;-87
2024/01/02 09:19:30;;;;;;;1.57;1.33;;;;;;;4.63;100.00;94467.53;7401458;19;20377;-87
2024/01/02 09:22:11;;;;;;;2.00;1.67;;;;;;;4.47;100.00;94439.41;7400518;19;20416;-86
2024/01/02 09:24:55;;;;;;;1.87;1.70;;;;;;;4.40;100.00;94427.97;7399435;19;20404;-87
2024/01/02 09:27:38;;;;;;;1.20;1.10;;;;;;;4.70;100.00;94457.44;7401018;19;20369;-87
2024/01/02 09:30:19;;;;;;;3.30;1.57;;;;;;;4.66;100.00;94446.91;7400793;19;20380;-86
2024/01/02 09:33:00;;;;;;;2.10;1.90;;;;;;;4.11;100.00;94354.03;7399239;19;20412;-87
2024/01/02 09:35:42;;;;;;;2.63;2.43;;;;;;;5.02;100.00;94449.16;7400805;19;20388;-87
2024/01/02 09:38:23;;;;;;;2.83;1.43;;;;;;;4.86;100.00;94434.34;7398662;19;20384;-87
2024/01/02 09:41:19;;;;;;;2.20;2.00;;;;;;;5.27;100.00;94478.00;7400943;19;20392;-86
2024/01/02 09:44:22;;;;;;;1.30;1.17;;;;;;;5.22;100.00;94462.59;7401277;19;20407;-87
2024/01/02 09:47:41;;;;;;;1.67;1.57;;;;;;;5.67;100.00;94535.75;7401344;19;20365;-86
2024/01/02 09:50:33;;;;;;;1.53;1.40;;;;;;;5.19;100.00;94465.81;7402291;19;20389;-87
2024/01/02 09:53:44;;;;;;;1.60;1.50;;;;;;;5.35;100.00;94466.84;7406049;19;20400;-89
2024/01/02 09:56:35;;;;;;;3.50;1.63;;;;;;;5.02;100.00;94412.75;7401797;19;20375;-87
2024/01/02 10:00:07;;;;;;;1.40;1.30;;;;;;;5.84;100.00;94525.31;7400909;19;20373;-86
2024/01/02 10:03:07;;;;;;;14.50;5.30;;;;;;;6.04;100.00;94518.66;7405433;19;20404;-87
2024/01/02 10:06:20;;;;;;;9.33;6.27;;;;;;;5.45;100.00;94417.09;7402239;19;20403;-87
2024/01/02 10:09:23;;;;;;;3.83;3.53;;;;;;;6.12;100.00;94494.41;7400614;19;20391;-87
2024/01/02 10:12:19;;;;;;;7.07;4.20;;;;;;;5.56;100.00;94401.88;7400919;19;20393;-87
2024/01/02 10:15:06;;;;;;;8.37;3.83;;;;;;;6.36;100.00;94503.47;7399547;19;20384;-86
2024/01/02 10:18:33;;;;;;;6.43;3.60;;;;;;;6.47;100.00;94510.59;7400332;19;20392;-86
2024/01/02 10:21:35;;;;;;;5.73;2.63;;;;;;;6.32;100.00;94464.28;7400315;19;20393;-89
2024/01/02 10:24:28;;;;;;;2.97;2.30;;;;;;;6.21;100.00;94439.66;7399170;19;20710;-87
2024/01/02 10:27:30;;;;;;;3.20;2.33;;;;;;;6.68;100.00;94489.78;7398857;19;20388;-86
2024/01/02 10:30:16;;;;;;;1.67;1.40;;;;;;;5.71;100.00;94333.72;7398270;19;20381;-86
2024/01/02 10:33:06;;;;;;;3.30;2.17;;;;;;;6.76;100.00;94480.34;7398078;19;20441;-87
2024/01/02 10:36:02;;;;;;;2.17;1.70;;;;;;;6.37;100.00;94403.38;7399311;19;20395;-86
2024/01/02 10:38:46;;;;;;;3.57;2.23;;;;;;;6.81;100.00;94460.09;7398980;19;20373;-86
2024/01/02 10:41:57;;;;;;;3.40;3.10;;;;;;;6.94;100.00;94465.38;7398707;19;20926;-86
2024/01/02 10:44:56;;;;;;;3.70;2.20;;;;;;;6.95;100.00;94459.81;7399972;19;20377;-84
2024/01/02 10:47:50;;;;;;;1.67;1.57;;;;;;;7.02;100.00;94448.84;7398807;19;20889;-83
2024/01/02 10:50:48;;;;;;;1.73;1.63;;;;;;;6.58;100.00;94391.13;7397296;19;20902;-84
2024/01/02 10:53:59;;;;;;;3.27;3.07;;;;;;;7.11;100.00;94460.75;7396916;19;20414;-84
2024/01/02 10:56:59;;;;;;;1.80;1.70;;;;;;;7.19;100.00;94451.31;7398086;19;20377;-83
2024/01/02 10:59:53;;;;;;;2.53;2.33;;;;;;;7.27;100.00;94452.31;7398654;19;20385;-84
2024/01/02 11:02:42;;;;;;;7.43;4.50;;;;;;;6.61;100.00;94337.59;7397343;19;20479;-84
2024/01/02 11:05:35;;;;;;;2.87;2.67;;;;;;;6.66;100.00;94348.59;7398210;19;20388;-84
2024/01/02 11:08:28;;;;;;;2.83;1.40;;;;;;;6.53;100.00;94307.94;7398816;19;20385;-85
2024/01/02 11:11:12;;;;;;;2.80;1.23;;;;;;;6.88;100.00;94358.63;7398460;19;20397;-84
2024/01/02 11:13:54;;;;;;;1.13;1.03;;;;;;;7.20;100.00;94395.47;7397983;19;20689;-84
2024/01/02 11:16:41;;;;;;;1.60;1.50;;;;;;;7.01;100.00;94345.63;7399514;19;20826;-84
2024/01/02 11:19:31;;;;;;;1.20;1.10;;;;;;;6.97;100.00;94336.94;7399488;19;20353;-83
2024/01/02 11:22:31;;;;;;;1.40;1.30;;;;;;;7.66;100.00;94440.53;7397612;19;20417;-84
2024/01/02 11:25:14;;;;;;;0.93;0.90;;;;;;;7.64;100.00;94440.09;7395939;19;20412;-86
2024/01/02 11:27:59;;;;;;;1.80;1.10;;;;;;;7.47;100.00;94405.28;7397777;19;20376;-84
2024/01/02 11:30:41;;;;;;;1.30;1.20;;;;;;;7.01;100.00;94332.59;7396746;19;20406;-84
2024/01/02 11:33:44;;;;;;;1.50;1.30;;;;;;;7.75;100.00;94421.06;7395639;19;20704;-84
2024/01/02 11:36:33;;;;;;;0.87;0.87;;;;;;;7.74;100.00;94422.16;7398756;19;20369;-84
2024/01/02 11:39:41;;;;;;;0.80;0.80;;;;;;;7.61;100.00;94391.16;7397868;19;20384;-84
2024/01/02 11:42:50;;;;;;;1.20;1.10;;;;;;;7.83;100.00;94414.19;7395698;19;20416;-83
2024/01/02 11:45:36;;;;;;;5.77;4.13;;;;;;;7.30;100.00;94331.63;7397187;19;20408;-84
2024/01/02 11:48:32;;;;;;;19.40;10.70;;;;;;;7.85;100.00;94409.44;7399014;19;20388;-83
2024/01/02 11:51:26;;;;;;;4.50;2.87;;;;;;;7.09;100.00;94280.34;7396585;19;20469;-83
2024/01/02 11:54:29;;;;;;;3.50;2.40;;;;;;;7.20;100.00;94304.16;7396676;19;20382;-83
2024/01/02 11:57:17;;;;;;;9.10;6.37;;;;;;;7.34;100.00;94306.44;7396888;19;20384;-83
2024/01/02 12:00:06;;;;;;;9.90;7.30;;;;;;;7.90;100.00;94387.56;7397487;19;20385;-82
2024/01/02 12:02:50;;;;;;;3.33;2.17;;;;;;;8.03;100.00;94383.84;7402210;19;20808;-83
2024/01/02 12:05:41;;;;;;;4.13;3.43;;;;;;;8.06;100.00;94383.94;7403866;19;20699;-83
2024/01/02 12:08:27;;;;;;;13.57;8.70;;;;;;;7.08;100.00;94241.56;7403751;19;20760;-82
2024/01/02 12:11:14;;;;;;;1.50;1.40;;;;;;;7.31;100.00;94275.78;7401516;19;20380;-83
2024/01/02 12:14:10;;;;;;;2.80;2.57;;;;;;;8.13;100.00;94388.63;7403502;19;20685;-83
2024/01/02 12:16:53;;;;;;;19.17;14.27;;;;;;;8.00;100.00;94361.75;7403186;19;20381;-82
2024/01/02 12:19:38;;;;;;;1.70;1.30;;;;;;;7.27;100.00;94257.41;7403764;19;20379;-83
2024/01/02 12:22:20;;;;;;;1.70;1.10;;;;;;;7.81;100.00;94327.59;7402150;19;20472;-82
2024/01/02 12:25:07;;;;;;;3.60;3.40;;;;;;;7.44;100.00;94262.41;7401295;19;20881;-82
2024/01/02 12:27:52;;;;;;;5.20;4.70;;;;;;;8.17;100.00;94365.19;7403865;19;20384;-83
2024/01/02 12:30:41;;;;;;;5.73;5.23;;;;;;;8.25;100.00;94369.53;7401969;19;20368;-82
2024/01/02 12:33:24;;;;;;;4.50;4.20;;;;;;;8.24;100.00;94366.19;7401550;19;20416;-83
2024/01/02 12:36:12;;;;;;;1.97;1.87;;;;;;;7.75;100.00;94279.31;7403748;19;20699;-83
2024/01/02 12:38:55;;;;;;;1.73;1.63;;;;;;;7.50;100.00;94251.72;7402902;19;20444;-83
2024/01/02 12:41:44;;;;;;;2.43;1.50;;;;;;;7.55;100.00;94243.66;7401946;19;20858;-83
2024/01/02 12:44:29;;;;;;;2.10;2.00;;;;;;;7.72;100.00;94272.16;7402837;19;20373;-83
2024/01/02 12:47:12;;;;;;;2.80;2.00;;;;;;;7.59;100.00;94250.53;7402246;19;20375;-82
2024/01/02 12:50:06;;;;;;;3.93;1.47;;;;;;;8.36;100.00;94363.50;7402590;19;20385;-83
2024/01/02 12:53:08;;;;;;;1.03;0.90;;;;;;;8.41;100.00;94348.69;7400656;19;20894;-83
2024/01/02 12:55:57;;;;;;;1.00;0.90;;;;;;;7.43;100.00;94208.66;7401762;19;20686;-83